Sherburn, MN (56171)

1:53 PM CDT on July 25, 2016 (GMT -0500)
KC0NKL - Elm Creek Township | | Change Station

Elev 1322 ft 43.68 °N, 94.79 °W | Updated 19 seconds ago

Clear
Clear
82.8 °F
Feels Like 80 °F
N
0.0
Wind Variable Wind from NW
Gusts 0.0 mph

Today
High -- | Low -- °F
--% Chance of Precip.
Yesterday
High -- | Low -- °F
Precip. -- in
Pressure 30.13 in
Visibility 10.0 miles
Clouds Clear
Heat Index 80 °F
Dew Point 23 °F
Humidity 11%
Rainfall 0.00 in
Snow Depth Not available.
6:01 AM 8:49 PM
Waning Gibbous, 63% visible
METAR KMJQ 251832Z AUTO 22004KT 10SM CLR 28/15 A3013 RMK AO2
Pressure 30.13 in
Visibility 10.0 miles
Clouds Clear
Heat Index 80 °F
Dew Point 23 °F
Humidity 11%
Rainfall 0.00 in
Snow Depth Not available.
6:01 AM 8:49 PM
Waning Gibbous, 63% visible
METAR KMJQ 251832Z AUTO 22004KT 10SM CLR 28/15 A3013 RMK AO2

10-Day Weather Forecast

Almanac

Astronomy

Jul. 25, 2016 Rise Set
Actual Time
Civil Twilight
Nautical Twilight
Astronomical Twilight
Moon
Length of Visible Light
Length of Day
Tomorrow will be .
, % of the Moon is Illuminated

Today's Extremes

State Highs State Lows

Community

WunderPhotos

Upload Photos

1,927,370 photos uploaded!

WunderBlog® & News

Nearby

Air Quality

  Air Quality AQ Index Pollutant
Not available.

Snow Depth

Station Depth Elevation

Earthquake Activity

City Distance Mag. Time & Date
Minimum magnitude displayed is 2.5.

Coastal Water Temperatures

Place Temperature

Stations

Nearby Weather Stations

Station Location Temp. Windchill Dew Point Humidity Wind Precip. Elev Updated Type
                   

Watches & Warnings

There are currently no watches in effect.